Archival Weather

Chicago O'Hare International

Chicago, Illinois (KORD)

Report from: Wednesday, September 6, 2023 5:41 AM CDT
Current time: Wednesday, May 29, 2024 7:18 PM CDT

Current weather – Weather history – Daily summaries
Weather forecast

Temperature22.2°C (72.0°F)
Dew point19.4°C (66.9°F)
Winds 6 kts (3.1 m/s, 6.9 mph) West-Southwest (250°)
Visibility10 mi. (16.1 km)
Clouds Few clouds 1,200 ft. (366 m)
Ceiling: Broken clouds 3,500 ft. (1,067 m)
Overcast 9,500 ft. (2,896 m)
Altimeter29.74 in.Hg (1007 mB)
Precipitiation0.04 in. (1 mm)
Precip. events Rain ended 10:19 AM
Rain began 10:26 AM
Rain ended 10:35 AM
Thunderstorm ended 10:34 AM
Relative humidity84 %
Density altitude1,352 ft. (412 m)
Remarks Automated weather observing station with precipitation discriminator
Lightning observed
Lightning observed: intra cloud, cloud to ground
Distant occasional distant southeast cumulonimbus clouds observed southeast moving northeast
Flight conditions Visual Meteorological Conditions
Raw dataKORD 061041Z 25006KT 10SM FEW012 BKN035 OVC095 22/19 A2974 RMK AO2 LTG DSNT ALQDS RAE19B26E35 TSE34 OCNL LTGICCG DSNT SE CB SE MOV NE P0004 T02220194
An error has occurred. This application may no longer respond until reloaded. Reload 🗙